sensor_id;sensor_type;location;lat;lon;timestamp;P1;durP1;ratioP1;P2;durP2;ratioP2
38240;SDS011;24037;49.536;8.500;2023-08-24T00:01:26;3.40;;;2.90;;
38240;SDS011;24037;49.536;8.500;2023-08-24T00:03:52;3.65;;;2.78;;
38240;SDS011;24037;49.536;8.500;2023-08-24T00:06:18;3.80;;;2.50;;
38240;SDS011;24037;49.536;8.500;2023-08-24T00:08:44;3.63;;;2.58;;
38240;SDS011;24037;49.536;8.500;2023-08-24T00:11:10;4.10;;;2.53;;
38240;SDS011;24037;49.536;8.500;2023-08-24T00:13:43;4.43;;;2.75;;
38240;SDS011;24037;49.536;8.500;2023-08-24T00:16:17;4.55;;;2.47;;
38240;SDS011;24037;49.536;8.500;2023-08-24T00:18:46;5.40;;;2.83;;
38240;SDS011;24037;49.536;8.500;2023-08-24T00:21:15;3.92;;;2.47;;
38240;SDS011;24037;49.536;8.500;2023-08-24T00:23:48;3.95;;;2.45;;
38240;SDS011;24037;49.536;8.500;2023-08-24T00:26:18;4.05;;;3.25;;
38240;SDS011;24037;49.536;8.500;2023-08-24T00:28:45;3.80;;;2.90;;
38240;SDS011;24037;49.536;8.500;2023-08-24T00:31:12;3.65;;;3.00;;
38240;SDS011;24037;49.536;8.500;2023-08-24T00:33:40;3.85;;;2.72;;
38240;SDS011;24037;49.536;8.500;2023-08-24T00:36:07;3.70;;;2.85;;
38240;SDS011;24037;49.536;8.500;2023-08-24T00:38:33;3.65;;;2.60;;
38240;SDS011;24037;49.536;8.500;2023-08-24T00:40:59;4.35;;;2.53;;
38240;SDS011;24037;49.536;8.500;2023-08-24T00:43:26;3.92;;;2.92;;
38240;SDS011;24037;49.536;8.500;2023-08-24T00:45:54;4.03;;;2.75;;
38240;SDS011;24037;49.536;8.500;2023-08-24T00:48:22;7.90;;;3.40;;
38240;SDS011;24037;49.536;8.500;2023-08-24T00:50:54;5.15;;;2.80;;
38240;SDS011;24037;49.536;8.500;2023-08-24T00:53:21;3.47;;;2.03;;
38240;SDS011;24037;49.536;8.500;2023-08-24T00:55:50;5.43;;;2.60;;
38240;SDS011;24037;49.536;8.500;2023-08-24T00:58:17;5.10;;;3.17;;
38240;SDS011;24037;49.536;8.500;2023-08-24T01:00:46;4.85;;;3.55;;
38240;SDS011;24037;49.536;8.500;2023-08-24T01:03:13;3.55;;;2.78;;
38240;SDS011;24037;49.536;8.500;2023-08-24T01:05:42;5.13;;;3.92;;
38240;SDS011;24037;49.536;8.500;2023-08-24T01:08:12;4.18;;;2.50;;
38240;SDS011;24037;49.536;8.500;2023-08-24T01:10:40;4.63;;;3.42;;
38240;SDS011;24037;49.536;8.500;2023-08-24T01:13:27;6.80;;;3.33;;
38240;SDS011;24037;49.536;8.500;2023-08-24T01:16:06;4.93;;;2.90;;
38240;SDS011;24037;49.536;8.500;2023-08-24T01:18:37;6.35;;;2.72;;
38240;SDS011;24037;49.536;8.500;2023-08-24T01:21:04;4.68;;;2.92;;
38240;SDS011;24037;49.536;8.500;2023-08-24T01:24:17;4.20;;;2.80;;
38240;SDS011;24037;49.536;8.500;2023-08-24T01:26:23;4.10;;;3.20;;
38240;SDS011;24037;49.536;8.500;2023-08-24T01:28:49;3.92;;;2.72;;
38240;SDS011;24037;49.536;8.500;2023-08-24T01:31:17;4.78;;;3.20;;
38240;SDS011;24037;49.536;8.500;2023-08-24T01:33:43;6.43;;;3.75;;
38240;SDS011;24037;49.536;8.500;2023-08-24T01:36:11;4.57;;;3.33;;
38240;SDS011;24037;49.536;8.500;2023-08-24T01:38:38;4.75;;;3.42;;
38240;SDS011;24037;49.536;8.500;2023-08-24T01:43:39;5.07;;;3.22;;
38240;SDS011;24037;49.536;8.500;2023-08-24T01:46:08;3.58;;;2.60;;
38240;SDS011;24037;49.536;8.500;2023-08-24T01:48:34;5.55;;;3.20;;
38240;SDS011;24037;49.536;8.500;2023-08-24T01:51:01;3.95;;;2.85;;
38240;SDS011;24037;49.536;8.500;2023-08-24T01:53:29;5.90;;;3.30;;
38240;SDS011;24037;49.536;8.500;2023-08-24T01:55:57;3.78;;;3.00;;
38240;SDS011;24037;49.536;8.500;2023-08-24T01:58:23;3.45;;;3.08;;
38240;SDS011;24037;49.536;8.500;2023-08-24T02:00:49;4.78;;;2.85;;
38240;SDS011;24037;49.536;8.500;2023-08-24T02:03:15;8.20;;;3.20;;
38240;SDS011;24037;49.536;8.500;2023-08-24T02:05:42;5.95;;;3.88;;
38240;SDS011;24037;49.536;8.500;2023-08-24T02:08:08;6.72;;;3.55;;
38240;SDS011;24037;49.536;8.500;2023-08-24T02:10:34;5.05;;;3.53;;
38240;SDS011;24037;49.536;8.500;2023-08-24T02:13:00;6.65;;;3.83;;
38240;SDS011;24037;49.536;8.500;2023-08-24T02:15:27;3.92;;;3.20;;
38240;SDS011;24037;49.536;8.500;2023-08-24T02:17:53;6.53;;;3.38;;
38240;SDS011;24037;49.536;8.500;2023-08-24T02:20:20;4.38;;;3.33;;
38240;SDS011;24037;49.536;8.500;2023-08-24T02:22:46;5.63;;;2.80;;
38240;SDS011;24037;49.536;8.500;2023-08-24T02:25:12;4.30;;;3.20;;
38240;SDS011;24037;49.536;8.500;2023-08-24T02:27:38;5.57;;;3.28;;
38240;SDS011;24037;49.536;8.500;2023-08-24T02:30:04;4.57;;;3.42;;
38240;SDS011;24037;49.536;8.500;2023-08-24T02:32:31;6.40;;;4.75;;
38240;SDS011;24037;49.536;8.500;2023-08-24T02:34:57;3.95;;;3.10;;
38240;SDS011;24037;49.536;8.500;2023-08-24T02:37:23;4.70;;;3.35;;
38240;SDS011;24037;49.536;8.500;2023-08-24T02:39:49;4.20;;;3.28;;
38240;SDS011;24037;49.536;8.500;2023-08-24T02:42:16;4.38;;;2.97;;
38240;SDS011;24037;49.536;8.500;2023-08-24T02:44:42;5.93;;;3.58;;
38240;SDS011;24037;49.536;8.500;2023-08-24T02:47:09;4.03;;;3.05;;
38240;SDS011;24037;49.536;8.500;2023-08-24T02:49:35;4.70;;;3.33;;
38240;SDS011;24037;49.536;8.500;2023-08-24T02:52:02;4.97;;;3.17;;
38240;SDS011;24037;49.536;8.500;2023-08-24T02:54:29;7.30;;;3.60;;
38240;SDS011;24037;49.536;8.500;2023-08-24T02:56:55;3.95;;;3.50;;
38240;SDS011;24037;49.536;8.500;2023-08-24T02:59:21;3.83;;;3.33;;
38240;SDS011;24037;49.536;8.500;2023-08-24T03:01:48;4.40;;;2.80;;
38240;SDS011;24037;49.536;8.500;2023-08-24T03:04:14;4.78;;;4.15;;
38240;SDS011;24037;49.536;8.500;2023-08-24T03:06:40;4.78;;;4.13;;
38240;SDS011;24037;49.536;8.500;2023-08-24T03:09:08;6.35;;;3.30;;
38240;SDS011;24037;49.536;8.500;2023-08-24T03:11:34;4.00;;;3.22;;
38240;SDS011;24037;49.536;8.500;2023-08-24T03:14:01;4.53;;;3.63;;
38240;SDS011;24037;49.536;8.500;2023-08-24T03:16:27;4.72;;;3.38;;
38240;SDS011;24037;49.536;8.500;2023-08-24T03:18:53;7.18;;;3.40;;
38240;SDS011;24037;49.536;8.500;2023-08-24T03:21:19;5.30;;;3.85;;
38240;SDS011;24037;49.536;8.500;2023-08-24T03:23:45;4.43;;;3.75;;
38240;SDS011;24037;49.536;8.500;2023-08-24T03:26:12;7.88;;;5.45;;
38240;SDS011;24037;49.536;8.500;2023-08-24T03:28:38;6.53;;;4.00;;
38240;SDS011;24037;49.536;8.500;2023-08-24T03:31:06;6.80;;;5.15;;
38240;SDS011;24037;49.536;8.500;2023-08-24T03:33:33;5.65;;;3.92;;
38240;SDS011;24037;49.536;8.500;2023-08-24T03:36:01;6.15;;;3.95;;
38240;SDS011;24037;49.536;8.500;2023-08-24T03:38:29;10.70;;;3.75;;
38240;SDS011;24037;49.536;8.500;2023-08-24T03:40:59;4.72;;;3.33;;
38240;SDS011;24037;49.536;8.500;2023-08-24T03:43:26;5.97;;;3.45;;
38240;SDS011;24037;49.536;8.500;2023-08-24T03:45:53;5.97;;;3.33;;
38240;SDS011;24037;49.536;8.500;2023-08-24T03:48:19;4.40;;;2.83;;
38240;SDS011;24037;49.536;8.500;2023-08-24T03:50:46;5.18;;;3.10;;
38240;SDS011;24037;49.536;8.500;2023-08-24T03:53:13;4.75;;;3.38;;
38240;SDS011;24037;49.536;8.500;2023-08-24T03:55:39;7.30;;;4.80;;
38240;SDS011;24037;49.536;8.500;2023-08-24T03:58:05;5.47;;;3.15;;
38240;SDS011;24037;49.536;8.500;2023-08-24T04:00:32;4.45;;;3.08;;
38240;SDS011;24037;49.536;8.500;2023-08-24T04:03:00;6.03;;;3.63;;
38240;SDS011;24037;49.536;8.500;2023-08-24T04:05:27;4.28;;;2.80;;
38240;SDS011;24037;49.536;8.500;2023-08-24T04:07:53;4.18;;;2.88;;
38240;SDS011;24037;49.536;8.500;2023-08-24T04:10:19;5.15;;;2.92;;
38240;SDS011;24037;49.536;8.500;2023-08-24T04:12:45;6.10;;;3.15;;
38240;SDS011;24037;49.536;8.500;2023-08-24T04:15:12;5.75;;;3.17;;
38240;SDS011;24037;49.536;8.500;2023-08-24T04:17:38;6.65;;;3.30;;
38240;SDS011;24037;49.536;8.500;2023-08-24T04:20:04;5.32;;;4.18;;
38240;SDS011;24037;49.536;8.500;2023-08-24T04:22:32;5.70;;;3.50;;
38240;SDS011;24037;49.536;8.500;2023-08-24T04:24:59;5.07;;;3.10;;
38240;SDS011;24037;49.536;8.500;2023-08-24T04:27:25;4.90;;;3.50;;
38240;SDS011;24037;49.536;8.500;2023-08-24T04:29:52;4.68;;;3.25;;
38240;SDS011;24037;49.536;8.500;2023-08-24T04:32:18;4.85;;;3.67;;
38240;SDS011;24037;49.536;8.500;2023-08-24T04:34:45;4.93;;;3.33;;
38240;SDS011;24037;49.536;8.500;2023-08-24T04:37:11;4.93;;;3.75;;
38240;SDS011;24037;49.536;8.500;2023-08-24T04:39:37;5.55;;;3.35;;
38240;SDS011;24037;49.536;8.500;2023-08-24T04:42:03;5.95;;;3.80;;
38240;SDS011;24037;49.536;8.500;2023-08-24T04:44:29;6.07;;;3.80;;
38240;SDS011;24037;49.536;8.500;2023-08-24T04:46:55;5.65;;;4.20;;
38240;SDS011;24037;49.536;8.500;2023-08-24T04:49:22;6.35;;;3.85;;
38240;SDS011;24037;49.536;8.500;2023-08-24T04:51:48;6.03;;;3.42;;
38240;SDS011;24037;49.536;8.500;2023-08-24T04:54:14;4.60;;;3.60;;
38240;SDS011;24037;49.536;8.500;2023-08-24T04:56:40;6.22;;;3.17;;
38240;SDS011;24037;49.536;8.500;2023-08-24T04:59:07;6.13;;;3.35;;
38240;SDS011;24037;49.536;8.500;2023-08-24T05:01:33;4.78;;;3.20;;
38240;SDS011;24037;49.536;8.500;2023-08-24T05:04:00;8.88;;;4.60;;
38240;SDS011;24037;49.536;8.500;2023-08-24T05:06:26;4.28;;;2.92;;
38240;SDS011;24037;49.536;8.500;2023-08-24T05:08:53;4.53;;;3.13;;
38240;SDS011;24037;49.536;8.500;2023-08-24T05:11:19;5.75;;;3.95;;
38240;SDS011;24037;49.536;8.500;2023-08-24T05:13:47;6.55;;;2.83;;
38240;SDS011;24037;49.536;8.500;2023-08-24T05:16:14;3.63;;;2.95;;
38240;SDS011;24037;49.536;8.500;2023-08-24T05:18:40;6.15;;;2.92;;
38240;SDS011;24037;49.536;8.500;2023-08-24T05:21:06;6.63;;;3.20;;
38240;SDS011;24037;49.536;8.500;2023-08-24T05:23:33;6.22;;;3.67;;
38240;SDS011;24037;49.536;8.500;2023-08-24T05:26:00;5.50;;;3.60;;
38240;SDS011;24037;49.536;8.500;2023-08-24T05:28:28;4.93;;;3.13;;
38240;SDS011;24037;49.536;8.500;2023-08-24T05:30:56;4.60;;;2.95;;
38240;SDS011;24037;49.536;8.500;2023-08-24T05:33:23;5.63;;;3.05;;
38240;SDS011;24037;49.536;8.500;2023-08-24T05:35:50;7.68;;;3.60;;
38240;SDS011;24037;49.536;8.500;2023-08-24T05:38:17;6.20;;;2.83;;
38240;SDS011;24037;49.536;8.500;2023-08-24T05:40:43;6.38;;;2.50;;
38240;SDS011;24037;49.536;8.500;2023-08-24T05:43:13;5.50;;;2.95;;
38240;SDS011;24037;49.536;8.500;2023-08-24T05:45:40;5.13;;;2.53;;
38240;SDS011;24037;49.536;8.500;2023-08-24T05:48:09;4.10;;;2.70;;
38240;SDS011;24037;49.536;8.500;2023-08-24T05:50:35;5.30;;;2.75;;
38240;SDS011;24037;49.536;8.500;2023-08-24T05:53:03;6.53;;;2.88;;
38240;SDS011;24037;49.536;8.500;2023-08-24T05:55:29;12.35;;;3.65;;
38240;SDS011;24037;49.536;8.500;2023-08-24T05:57:56;5.00;;;2.78;;
38240;SDS011;24037;49.536;8.500;2023-08-24T06:00:22;6.32;;;3.63;;
38240;SDS011;24037;49.536;8.500;2023-08-24T06:02:48;6.90;;;3.55;;
38240;SDS011;24037;49.536;8.500;2023-08-24T06:05:14;5.90;;;3.17;;
38240;SDS011;24037;49.536;8.500;2023-08-24T06:07:43;4.95;;;3.00;;
38240;SDS011;24037;49.536;8.500;2023-08-24T06:10:11;7.15;;;3.83;;
38240;SDS011;24037;49.536;8.500;2023-08-24T06:12:37;5.03;;;3.30;;
38240;SDS011;24037;49.536;8.500;2023-08-24T06:15:04;4.78;;;3.10;;
38240;SDS011;24037;49.536;8.500;2023-08-24T06:17:33;5.88;;;3.30;;
38240;SDS011;24037;49.536;8.500;2023-08-24T06:20:03;14.70;;;4.78;;
38240;SDS011;24037;49.536;8.500;2023-08-24T06:22:31;5.35;;;4.22;;
38240;SDS011;24037;49.536;8.500;2023-08-24T06:24:57;10.52;;;4.20;;
38240;SDS011;24037;49.536;8.500;2023-08-24T06:27:25;4.40;;;3.15;;
38240;SDS011;24037;49.536;8.500;2023-08-24T06:29:52;4.93;;;3.35;;
38240;SDS011;24037;49.536;8.500;2023-08-24T06:32:18;4.72;;;3.42;;
38240;SDS011;24037;49.536;8.500;2023-08-24T06:34:44;5.75;;;4.15;;
38240;SDS011;24037;49.536;8.500;2023-08-24T06:37:10;7.95;;;3.65;;
38240;SDS011;24037;49.536;8.500;2023-08-24T06:39:36;4.78;;;3.70;;
38240;SDS011;24037;49.536;8.500;2023-08-24T06:42:02;4.43;;;2.97;;
38240;SDS011;24037;49.536;8.500;2023-08-24T06:44:30;7.05;;;3.25;;
38240;SDS011;24037;49.536;8.500;2023-08-24T06:46:56;5.43;;;3.03;;
38240;SDS011;24037;49.536;8.500;2023-08-24T06:49:22;7.78;;;4.47;;
38240;SDS011;24037;49.536;8.500;2023-08-24T06:51:48;4.65;;;3.35;;
38240;SDS011;24037;49.536;8.500;2023-08-24T06:54:14;4.47;;;3.35;;
38240;SDS011;24037;49.536;8.500;2023-08-24T06:56:41;5.15;;;3.58;;
38240;SDS011;24037;49.536;8.500;2023-08-24T06:59:08;6.22;;;3.92;;
38240;SDS011;24037;49.536;8.500;2023-08-24T07:01:36;6.10;;;4.10;;
38240;SDS011;24037;49.536;8.500;2023-08-24T07:04:02;5.25;;;3.38;;
38240;SDS011;24037;49.536;8.500;2023-08-24T07:06:29;6.55;;;3.63;;
38240;SDS011;24037;49.536;8.500;2023-08-24T07:08:55;4.50;;;3.47;;
38240;SDS011;24037;49.536;8.500;2023-08-24T07:11:21;4.07;;;3.25;;
38240;SDS011;24037;49.536;8.500;2023-08-24T07:13:49;4.55;;;3.05;;
38240;SDS011;24037;49.536;8.500;2023-08-24T07:16:15;3.35;;;2.60;;
38240;SDS011;24037;49.536;8.500;2023-08-24T07:18:42;3.92;;;3.00;;
38240;SDS011;24037;49.536;8.500;2023-08-24T07:21:08;4.40;;;3.22;;
38240;SDS011;24037;49.536;8.500;2023-08-24T07:23:34;5.35;;;3.50;;
38240;SDS011;24037;49.536;8.500;2023-08-24T07:26:00;5.82;;;2.50;;
38240;SDS011;24037;49.536;8.500;2023-08-24T07:28:27;3.72;;;2.33;;
38240;SDS011;24037;49.536;8.500;2023-08-24T07:30:53;4.43;;;2.30;;
38240;SDS011;24037;49.536;8.500;2023-08-24T07:33:21;5.47;;;2.25;;
38240;SDS011;24037;49.536;8.500;2023-08-24T07:35:48;3.80;;;2.55;;
38240;SDS011;24037;49.536;8.500;2023-08-24T07:38:14;5.43;;;2.92;;
38240;SDS011;24037;49.536;8.500;2023-08-24T07:40:40;5.35;;;2.33;;
38240;SDS011;24037;49.536;8.500;2023-08-24T07:43:06;4.97;;;2.17;;
38240;SDS011;24037;49.536;8.500;2023-08-24T07:45:33;5.43;;;2.30;;
38240;SDS011;24037;49.536;8.500;2023-08-24T07:47:59;3.25;;;2.42;;
38240;SDS011;24037;49.536;8.500;2023-08-24T07:50:25;4.38;;;2.55;;
38240;SDS011;24037;49.536;8.500;2023-08-24T07:52:51;3.42;;;2.55;;
38240;SDS011;24037;49.536;8.500;2023-08-24T07:55:18;3.35;;;2.42;;
38240;SDS011;24037;49.536;8.500;2023-08-24T07:57:44;4.60;;;2.30;;
38240;SDS011;24037;49.536;8.500;2023-08-24T08:00:10;3.50;;;2.25;;
38240;SDS011;24037;49.536;8.500;2023-08-24T08:02:40;2.73;;;1.87;;
38240;SDS011;24037;49.536;8.500;2023-08-24T08:05:06;4.38;;;2.38;;
38240;SDS011;24037;49.536;8.500;2023-08-24T08:07:33;4.53;;;2.10;;
38240;SDS011;24037;49.536;8.500;2023-08-24T08:10:00;7.50;;;3.33;;
38240;SDS011;24037;49.536;8.500;2023-08-24T08:12:26;3.35;;;2.20;;
38240;SDS011;24037;49.536;8.500;2023-08-24T08:14:52;3.78;;;2.03;;
38240;SDS011;24037;49.536;8.500;2023-08-24T08:17:18;3.58;;;2.42;;
38240;SDS011;24037;49.536;8.500;2023-08-24T08:19:45;3.75;;;2.30;;
38240;SDS011;24037;49.536;8.500;2023-08-24T08:22:12;19.05;;;3.55;;
38240;SDS011;24037;49.536;8.500;2023-08-24T08:24:38;3.05;;;2.40;;
38240;SDS011;24037;49.536;8.500;2023-08-24T08:27:04;3.00;;;2.08;;
38240;SDS011;24037;49.536;8.500;2023-08-24T08:29:30;3.90;;;2.20;;
38240;SDS011;24037;49.536;8.500;2023-08-24T08:31:56;3.78;;;1.73;;
38240;SDS011;24037;49.536;8.500;2023-08-24T08:34:22;3.45;;;2.53;;
38240;SDS011;24037;49.536;8.500;2023-08-24T08:36:48;3.20;;;2.38;;
38240;SDS011;24037;49.536;8.500;2023-08-24T08:39:15;2.97;;;2.25;;
38240;SDS011;24037;49.536;8.500;2023-08-24T08:41:43;3.67;;;1.92;;
38240;SDS011;24037;49.536;8.500;2023-08-24T08:44:14;3.40;;;2.25;;
38240;SDS011;24037;49.536;8.500;2023-08-24T08:46:42;3.75;;;2.00;;
38240;SDS011;24037;49.536;8.500;2023-08-24T08:49:09;3.42;;;1.88;;
38240;SDS011;24037;49.536;8.500;2023-08-24T08:51:36;3.30;;;1.70;;
38240;SDS011;24037;49.536;8.500;2023-08-24T08:54:03;3.42;;;1.83;;
38240;SDS011;24037;49.536;8.500;2023-08-24T08:56:33;3.17;;;1.73;;
38240;SDS011;24037;49.536;8.500;2023-08-24T08:59:00;2.00;;;1.20;;
38240;SDS011;24037;49.536;8.500;2023-08-24T09:01:27;2.97;;;1.63;;
38240;SDS011;24037;49.536;8.500;2023-08-24T09:03:53;3.22;;;1.40;;
38240;SDS011;24037;49.536;8.500;2023-08-24T09:06:20;2.50;;;1.75;;
38240;SDS011;24037;49.536;8.500;2023-08-24T09:08:48;3.90;;;1.30;;
38240;SDS011;24037;49.536;8.500;2023-08-24T09:11:16;2.13;;;1.13;;
38240;SDS011;24037;49.536;8.500;2023-08-24T09:16:11;1.75;;;1.05;;
38240;SDS011;24037;49.536;8.500;2023-08-24T09:18:42;3.05;;;1.35;;
38240;SDS011;24037;49.536;8.500;2023-08-24T09:21:12;2.40;;;1.33;;
38240;SDS011;24037;49.536;8.500;2023-08-24T09:23:52;2.63;;;1.42;;
38240;SDS011;24037;49.536;8.500;2023-08-24T09:26:28;2.00;;;0.73;;
38240;SDS011;24037;49.536;8.500;2023-08-24T09:28:56;3.85;;;0.90;;
38240;SDS011;24037;49.536;8.500;2023-08-24T09:31:23;5.45;;;1.52;;
38240;SDS011;24037;49.536;8.500;2023-08-24T09:34:00;2.17;;;1.10;;
38240;SDS011;24037;49.536;8.500;2023-08-24T09:36:26;1.88;;;1.27;;
38240;SDS011;24037;49.536;8.500;2023-08-24T09:38:56;2.92;;;2.22;;
38240;SDS011;24037;49.536;8.500;2023-08-24T09:41:24;4.78;;;1.02;;
38240;SDS011;24037;49.536;8.500;2023-08-24T09:44:05;2.95;;;1.23;;
38240;SDS011;24037;49.536;8.500;2023-08-24T09:46:32;2.08;;;1.13;;
38240;SDS011;24037;49.536;8.500;2023-08-24T09:48:58;2.63;;;1.38;;
38240;SDS011;24037;49.536;8.500;2023-08-24T09:51:26;4.20;;;1.33;;
38240;SDS011;24037;49.536;8.500;2023-08-24T09:53:54;2.03;;;1.15;;
38240;SDS011;24037;49.536;8.500;2023-08-24T09:56:27;1.70;;;0.90;;
38240;SDS011;24037;49.536;8.500;2023-08-24T09:58:54;2.72;;;1.30;;
38240;SDS011;24037;49.536;8.500;2023-08-24T10:01:25;3.40;;;1.50;;
38240;SDS011;24037;49.536;8.500;2023-08-24T10:03:53;3.25;;;1.10;;
38240;SDS011;24037;49.536;8.500;2023-08-24T10:06:23;3.88;;;1.75;;
38240;SDS011;24037;49.536;8.500;2023-08-24T10:08:57;2.08;;;1.38;;
38240;SDS011;24037;49.536;8.500;2023-08-24T10:11:29;3.25;;;1.80;;
38240;SDS011;24037;49.536;8.500;2023-08-24T10:14:04;2.63;;;1.38;;
38240;SDS011;24037;49.536;8.500;2023-08-24T10:17:04;3.45;;;1.58;;
38240;SDS011;24037;49.536;8.500;2023-08-24T10:19:32;1.88;;;0.90;;
38240;SDS011;24037;49.536;8.500;2023-08-24T10:21:59;2.55;;;1.00;;
38240;SDS011;24037;49.536;8.500;2023-08-24T10:24:27;3.13;;;1.13;;
38240;SDS011;24037;49.536;8.500;2023-08-24T10:26:54;2.88;;;1.60;;
38240;SDS011;24037;49.536;8.500;2023-08-24T10:29:22;2.85;;;1.48;;
38240;SDS011;24037;49.536;8.500;2023-08-24T10:31:51;1.90;;;0.80;;
38240;SDS011;24037;49.536;8.500;2023-08-24T10:34:17;2.10;;;0.90;;
38240;SDS011;24037;49.536;8.500;2023-08-24T10:36:43;5.05;;;1.50;;
38240;SDS011;24037;49.536;8.500;2023-08-24T10:39:14;2.53;;;1.05;;
38240;SDS011;24037;49.536;8.500;2023-08-24T10:41:50;2.67;;;1.73;;
38240;SDS011;24037;49.536;8.500;2023-08-24T10:44:36;2.45;;;1.20;;
38240;SDS011;24037;49.536;8.500;2023-08-24T10:49:40;3.55;;;1.20;;
38240;SDS011;24037;49.536;8.500;2023-08-24T10:54:49;2.33;;;1.42;;
38240;SDS011;24037;49.536;8.500;2023-08-24T10:57:21;2.65;;;0.90;;
38240;SDS011;24037;49.536;8.500;2023-08-24T11:02:42;2.38;;;1.40;;
38240;SDS011;24037;49.536;8.500;2023-08-24T11:05:16;5.57;;;1.30;;
38240;SDS011;24037;49.536;8.500;2023-08-24T11:07:49;2.28;;;1.35;;
38240;SDS011;24037;49.536;8.500;2023-08-24T11:10:22;1.48;;;0.88;;
38240;SDS011;24037;49.536;8.500;2023-08-24T11:13:06;1.40;;;0.90;;
38240;SDS011;24037;49.536;8.500;2023-08-24T11:15:37;1.75;;;1.23;;
38240;SDS011;24037;49.536;8.500;2023-08-24T11:18:21;2.00;;;1.20;;
38240;SDS011;24037;49.536;8.500;2023-08-24T11:23:18;3.13;;;1.75;;
38240;SDS011;24037;49.536;8.500;2023-08-24T11:25:45;2.22;;;0.90;;
38240;SDS011;24037;49.536;8.500;2023-08-24T11:28:16;3.70;;;1.27;;
38240;SDS011;24037;49.536;8.500;2023-08-24T11:30:44;3.60;;;1.15;;
38240;SDS011;24037;49.536;8.500;2023-08-24T11:33:11;2.95;;;1.38;;
38240;SDS011;24037;49.536;8.500;2023-08-24T11:35:44;2.42;;;1.85;;
38240;SDS011;24037;49.536;8.500;2023-08-24T11:38:11;2.42;;;0.80;;
38240;SDS011;24037;49.536;8.500;2023-08-24T11:40:38;2.25;;;0.98;;
38240;SDS011;24037;49.536;8.500;2023-08-24T11:43:31;2.22;;;1.15;;
38240;SDS011;24037;49.536;8.500;2023-08-24T11:45:57;2.50;;;0.95;;
38240;SDS011;24037;49.536;8.500;2023-08-24T11:48:26;2.47;;;1.08;;
38240;SDS011;24037;49.536;8.500;2023-08-24T11:51:14;2.50;;;1.23;;
38240;SDS011;24037;49.536;8.500;2023-08-24T11:53:44;1.95;;;1.17;;
38240;SDS011;24037;49.536;8.500;2023-08-24T11:56:12;3.95;;;1.42;;
38240;SDS011;24037;49.536;8.500;2023-08-24T11:58:40;2.28;;;1.40;;
38240;SDS011;24037;49.536;8.500;2023-08-24T12:01:10;3.53;;;1.30;;
38240;SDS011;24037;49.536;8.500;2023-08-24T12:03:38;1.83;;;1.00;;
38240;SDS011;24037;49.536;8.500;2023-08-24T12:06:10;2.05;;;1.10;;
38240;SDS011;24037;49.536;8.500;2023-08-24T12:08:39;2.25;;;0.93;;
38240;SDS011;24037;49.536;8.500;2023-08-24T12:11:11;2.83;;;1.20;;
38240;SDS011;24037;49.536;8.500;2023-08-24T12:13:49;2.25;;;1.15;;
38240;SDS011;24037;49.536;8.500;2023-08-24T12:16:18;1.65;;;1.02;;
38240;SDS011;24037;49.536;8.500;2023-08-24T12:18:47;2.22;;;1.48;;
38240;SDS011;24037;49.536;8.500;2023-08-24T12:21:14;2.53;;;1.27;;
38240;SDS011;24037;49.536;8.500;2023-08-24T12:23:41;4.57;;;1.35;;
38240;SDS011;24037;49.536;8.500;2023-08-24T12:26:16;2.07;;;1.20;;
38240;SDS011;24037;49.536;8.500;2023-08-24T12:28:43;4.05;;;1.63;;
38240;SDS011;24037;49.536;8.500;2023-08-24T12:31:14;3.47;;;1.40;;
38240;SDS011;24037;49.536;8.500;2023-08-24T12:33:41;2.42;;;1.30;;
38240;SDS011;24037;49.536;8.500;2023-08-24T12:36:08;4.05;;;2.38;;
38240;SDS011;24037;49.536;8.500;2023-08-24T12:38:34;4.75;;;1.48;;
38240;SDS011;24037;49.536;8.500;2023-08-24T12:41:01;1.92;;;1.20;;
38240;SDS011;24037;49.536;8.500;2023-08-24T12:43:29;1.60;;;1.25;;
38240;SDS011;24037;49.536;8.500;2023-08-24T12:45:55;1.73;;;1.10;;
38240;SDS011;24037;49.536;8.500;2023-08-24T12:48:22;2.38;;;1.50;;
38240;SDS011;24037;49.536;8.500;2023-08-24T12:50:48;3.17;;;1.30;;
38240;SDS011;24037;49.536;8.500;2023-08-24T12:53:14;2.20;;;1.10;;
38240;SDS011;24037;49.536;8.500;2023-08-24T12:55:41;2.38;;;1.35;;
38240;SDS011;24037;49.536;8.500;2023-08-24T12:58:07;2.72;;;1.52;;
38240;SDS011;24037;49.536;8.500;2023-08-24T13:00:33;3.17;;;1.30;;
38240;SDS011;24037;49.536;8.500;2023-08-24T13:02:59;2.67;;;1.70;;
38240;SDS011;24037;49.536;8.500;2023-08-24T13:05:25;2.83;;;1.92;;
38240;SDS011;24037;49.536;8.500;2023-08-24T13:07:52;1.55;;;1.17;;
38240;SDS011;24037;49.536;8.500;2023-08-24T13:10:19;1.88;;;1.38;;
38240;SDS011;24037;49.536;8.500;2023-08-24T13:12:45;1.88;;;1.20;;
38240;SDS011;24037;49.536;8.500;2023-08-24T13:15:13;1.95;;;1.00;;
38240;SDS011;24037;49.536;8.500;2023-08-24T13:17:40;2.92;;;1.60;;
38240;SDS011;24037;49.536;8.500;2023-08-24T13:20:07;3.65;;;1.30;;
38240;SDS011;24037;49.536;8.500;2023-08-24T13:22:33;2.53;;;1.35;;
38240;SDS011;24037;49.536;8.500;2023-08-24T13:24:59;2.00;;;1.33;;
38240;SDS011;24037;49.536;8.500;2023-08-24T13:27:25;1.80;;;1.25;;
38240;SDS011;24037;49.536;8.500;2023-08-24T13:29:51;2.17;;;1.08;;
38240;SDS011;24037;49.536;8.500;2023-08-24T13:32:22;2.22;;;1.30;;
38240;SDS011;24037;49.536;8.500;2023-08-24T13:34:48;4.38;;;1.70;;
38240;SDS011;24037;49.536;8.500;2023-08-24T13:37:14;2.85;;;1.15;;
38240;SDS011;24037;49.536;8.500;2023-08-24T13:39:40;3.35;;;1.27;;
38240;SDS011;24037;49.536;8.500;2023-08-24T13:42:06;2.60;;;1.35;;
38240;SDS011;24037;49.536;8.500;2023-08-24T13:44:34;2.92;;;1.40;;
38240;SDS011;24037;49.536;8.500;2023-08-24T13:47:01;2.75;;;1.20;;
38240;SDS011;24037;49.536;8.500;2023-08-24T13:49:27;2.63;;;1.08;;
38240;SDS011;24037;49.536;8.500;2023-08-24T13:51:56;3.08;;;1.23;;
38240;SDS011;24037;49.536;8.500;2023-08-24T13:54:26;2.45;;;1.45;;
38240;SDS011;24037;49.536;8.500;2023-08-24T13:56:57;2.65;;;1.40;;
38240;SDS011;24037;49.536;8.500;2023-08-24T13:59:24;2.22;;;1.30;;
38240;SDS011;24037;49.536;8.500;2023-08-24T14:01:50;2.55;;;1.30;;
38240;SDS011;24037;49.536;8.500;2023-08-24T14:04:16;2.17;;;1.33;;
38240;SDS011;24037;49.536;8.500;2023-08-24T14:06:48;2.78;;;1.60;;
38240;SDS011;24037;49.536;8.500;2023-08-24T14:09:16;2.00;;;1.45;;
38240;SDS011;24037;49.536;8.500;2023-08-24T14:11:42;2.22;;;1.45;;
38240;SDS011;24037;49.536;8.500;2023-08-24T14:14:08;3.78;;;2.03;;
38240;SDS011;24037;49.536;8.500;2023-08-24T14:16:35;2.50;;;1.20;;
38240;SDS011;24037;49.536;8.500;2023-08-24T14:19:01;2.75;;;1.70;;
38240;SDS011;24037;49.536;8.500;2023-08-24T14:21:32;2.65;;;1.38;;
38240;SDS011;24037;49.536;8.500;2023-08-24T14:23:58;2.72;;;1.20;;
38240;SDS011;24037;49.536;8.500;2023-08-24T14:26:24;2.22;;;1.60;;
38240;SDS011;24037;49.536;8.500;2023-08-24T14:28:54;2.58;;;1.35;;
38240;SDS011;24037;49.536;8.500;2023-08-24T14:31:22;2.45;;;1.70;;
38240;SDS011;24037;49.536;8.500;2023-08-24T14:33:50;3.67;;;1.73;;
38240;SDS011;24037;49.536;8.500;2023-08-24T14:36:17;2.80;;;1.75;;
38240;SDS011;24037;49.536;8.500;2023-08-24T14:38:45;3.20;;;2.08;;
38240;SDS011;24037;49.536;8.500;2023-08-24T14:41:12;2.90;;;1.70;;
38240;SDS011;24037;49.536;8.500;2023-08-24T14:43:39;3.20;;;1.83;;
38240;SDS011;24037;49.536;8.500;2023-08-24T14:46:07;3.30;;;1.80;;
38240;SDS011;24037;49.536;8.500;2023-08-24T14:48:34;4.13;;;1.85;;
38240;SDS011;24037;49.536;8.500;2023-08-24T14:51:00;2.63;;;2.03;;
38240;SDS011;24037;49.536;8.500;2023-08-24T14:53:26;4.28;;;2.38;;
38240;SDS011;24037;49.536;8.500;2023-08-24T14:55:53;4.25;;;2.60;;
38240;SDS011;24037;49.536;8.500;2023-08-24T14:58:20;3.53;;;2.28;;
38240;SDS011;24037;49.536;8.500;2023-08-24T15:00:48;2.80;;;2.30;;
38240;SDS011;24037;49.536;8.500;2023-08-24T15:03:15;4.05;;;2.97;;
38240;SDS011;24037;49.536;8.500;2023-08-24T15:05:43;5.88;;;3.03;;
38240;SDS011;24037;49.536;8.500;2023-08-24T15:08:10;3.92;;;3.00;;